Ana Sayfa
METAR-TAF:

METAR-TAF

Havaalanları :

Yuma, Arizona, Amerika Birleşik Devletleri

Enlem: 32-37-25N, Boylam: 113-45-50W, yükseklik: 64 m

Güncel hava durumu gözlemi

Rapor saat 12:57 UTC de 10 dakika önce yapıldı.
Rüzgar kuzeydan 8 kt
Sıcaklık 14°C
Nem 72%
Basınç 1014 hPa
Görüş mesafesi: 16.1 km
7000 ft yükseklikte parçalı çok bulutlu
10000 ft yükseklikte çok bulutlu

METAR: KNYL 091257Z AUTO 36008KT 10SM BKN070 OVC100 14/09 A2995 RMK AO2 SLP140 T01390094 $

Saat: 06:07 (13:07 UTC)

Tahmin

Ayın 09'si saat 03 UTC'den ayın 10'si saat 03 UTC'ye kadar geçerli Tahmin
Rüzgar kuzeybatıdan 7 kt
Görüş mesafesi 10 km veya daha fazla
25000 ft yükseklikte az bulutlu
Geçici
ayın 09'si saat 15 UTC'den ayın 09'si saat 21 UTC'ye kadar
Rüzgar kuzeydan 7 kt ve 15 kt'a kadar ani rüzgarlar
Görüş mesafesi: 0914 m

TAF: KNYL 0903/1003 31007KT 9999 FEW250 QNH2991INS TEMPO 0915/0921 35007G15KT AUTOMATED SENSOR METWATCH 0903 TIL 0914 T13/0913Z T23/0921Z

4.000'den fazla havaalanı için hava durumu gözlemleri ve tahminleri (METAR ve TAF raporları).

Kullanılabilir istasyonlar harita üzerinde sarı ve kırmızı noktalarla gösterilir.

İstasyonun adını görmek için fareyi noktanın üzerinde gezdirin.

Sonrasında hava gözlem ve tahminlerini görmek için tıklayın.

Haritayı değiştirmek için: yaklaştırmak için siyah artı işaretli yeşil düğmeye ve uzaklaştırmak için de eksi işaretli düğmeye hızla tıklayın; bitişik haritalar için yeşil okları kullanın.


METAR-TAF: